createdAt,value
2023-03-10T00:03:23.621Z,12.78
2023-03-10T00:08:26.101Z,12.75
2023-03-10T00:13:25.648Z,12.81
2023-03-10T00:18:24.445Z,12.71
2023-03-10T00:23:24.486Z,12.68
2023-03-10T00:28:23.251Z,12.60
2023-03-10T00:33:21.956Z,12.65
2023-03-10T00:38:20.651Z,12.71
2023-03-10T00:43:20.817Z,12.63
2023-03-10T00:48:19.866Z,12.78
2023-03-10T00:53:18.849Z,12.75
2023-03-10T00:58:17.521Z,12.79
2023-03-10T01:03:17.596Z,12.85
2023-03-10T01:08:17.125Z,12.88
2023-03-10T01:13:17.435Z,12.72
2023-03-10T01:18:18.936Z,12.84
2023-03-10T01:23:20.962Z,12.94
2023-03-10T01:28:22.013Z,12.71
2023-03-10T01:33:22.155Z,12.80
2023-03-10T01:38:20.872Z,12.78
2023-03-10T01:43:31.688Z,12.73
2023-03-10T01:48:35.307Z,12.73
2023-03-10T01:53:35.133Z,12.81
2023-03-10T01:58:44.247Z,12.57
2023-03-10T02:03:49.708Z,12.67
2023-03-10T02:08:54.336Z,12.67
2023-03-10T02:13:53.128Z,12.67
2023-03-10T02:18:53.234Z,12.74
2023-03-10T02:24:01.748Z,12.59
2023-03-10T02:29:05.616Z,12.58
2023-03-10T02:34:06.740Z,12.59
2023-03-10T02:39:06.039Z,12.76
2023-03-10T02:44:10.773Z,12.65
2023-03-10T02:49:10.982Z,12.59
2023-03-10T02:54:14.183Z,12.40
2023-03-10T02:59:15.105Z,12.09
2023-03-10T03:04:18.965Z,12.30
2023-03-10T03:09:18.455Z,12.49
2023-03-10T03:14:19.892Z,12.23
2023-03-10T03:19:20.810Z,12.08
2023-03-10T03:24:21.209Z,12.19
2023-03-10T03:29:21.744Z,12.35
2023-03-10T03:34:21.109Z,12.29
2023-03-10T03:39:22.751Z,12.16
2023-03-10T03:44:27.716Z,12.04
2023-03-10T03:49:27.669Z,12.22
2023-03-10T03:54:26.944Z,12.40
2023-03-10T03:59:27.298Z,12.31
2023-03-10T04:04:27.414Z,12.40
2023-03-10T04:09:27.015Z,12.40
2023-03-10T04:14:27.280Z,12.39
2023-03-10T04:19:27.511Z,12.28
2023-03-10T04:24:32.265Z,12.37
2023-03-10T04:29:33.169Z,12.39
2023-03-10T04:34:32.615Z,12.43
2023-03-10T04:39:31.572Z,12.38
2023-03-10T04:44:31.629Z,12.54
2023-03-10T04:49:34.783Z,12.58
2023-03-10T04:54:34.708Z,12.47
2023-03-10T04:59:33.519Z,12.51
2023-03-10T05:04:32.564Z,12.40
2023-03-10T05:09:35.524Z,12.52
2023-03-10T05:14:34.672Z,12.56
2023-03-10T05:19:37.320Z,12.45
2023-03-10T05:24:38.035Z,12.39
2023-03-10T05:29:42.236Z,12.40
2023-03-10T05:34:47.707Z,12.46
2023-03-10T05:39:51.333Z,12.46
2023-03-10T05:44:52.542Z,12.64
2023-03-10T05:49:51.468Z,12.81
2023-03-10T05:54:52.419Z,12.85
2023-03-10T05:59:52.149Z,12.87
2023-03-10T06:04:51.200Z,13.19
2023-03-10T06:09:54.167Z,13.31
2023-03-10T06:14:52.890Z,13.65
2023-03-10T06:19:52.543Z,13.60
2023-03-10T06:24:52.682Z,13.73
2023-03-10T06:29:51.580Z,13.89
2023-03-10T06:34:50.376Z,13.80
2023-03-10T06:39:49.129Z,13.84
2023-03-10T06:44:49.560Z,13.82
2023-03-10T06:49:49.442Z,13.90
2023-03-10T06:54:48.231Z,14.15
2023-03-10T06:59:48.364Z,14.10
2023-03-10T07:04:47.454Z,14.33
2023-03-10T07:09:47.124Z,14.53
2023-03-10T07:14:45.880Z,14.91
2023-03-10T07:19:46.352Z,15.14
2023-03-10T07:24:45.125Z,15.30
2023-03-10T07:29:43.811Z,15.46
2023-03-10T07:34:42.575Z,15.72
2023-03-10T07:39:42.713Z,15.68
2023-03-10T07:44:41.448Z,15.86
2023-03-10T07:49:46.478Z,15.67
2023-03-10T07:54:47.046Z,16.04
2023-03-10T07:59:46.067Z,16.14
2023-03-10T08:04:45.234Z,16.39
2023-03-10T08:09:44.091Z,16.67
2023-03-10T08:14:44.368Z,16.52
2023-03-10T08:19:43.128Z,16.69
2023-03-10T08:24:41.785Z,16.80
2023-03-10T08:29:40.481Z,17.08
2023-03-10T08:34:41.757Z,17.16
2023-03-10T08:39:40.625Z,17.01
2023-03-10T08:44:39.412Z,17.06
2023-03-10T08:49:38.157Z,16.91
2023-03-10T08:54:38.276Z,17.20
2023-03-10T08:59:37.369Z,17.02
2023-03-10T09:04:36.172Z,17.41
2023-03-10T09:09:34.945Z,17.62
2023-03-10T09:14:35.159Z,18.24
2023-03-10T09:19:33.914Z,19.03
2023-03-10T09:24:32.726Z,19.75
2023-03-10T09:29:42.528Z,20.05
2023-03-10T09:34:43.637Z,20.92
2023-03-10T09:39:42.517Z,21.08
2023-03-10T09:44:48.503Z,22.11
2023-03-10T09:49:55.967Z,22.79
2023-03-10T09:55:01.269Z,23.36
2023-03-10T10:00:05.185Z,24.06
2023-03-10T10:05:17.107Z,24.53
2023-03-10T10:10:19.769Z,23.95
2023-03-10T10:15:22.360Z,23.70
2023-03-10T10:20:26.628Z,24.37
2023-03-10T10:25:26.951Z,24.33
2023-03-10T10:30:35.703Z,24.55
2023-03-10T10:35:38.661Z,23.95
2023-03-10T10:40:47.634Z,23.98
2023-03-10T10:45:54.230Z,24.24
2023-03-10T10:50:56.010Z,23.95
2023-03-10T10:56:00.967Z,25.53
2023-03-10T11:01:01.748Z,25.23
2023-03-10T11:06:15.386Z,26.02
2023-03-10T11:11:23.441Z,26.74
2023-03-10T11:16:29.604Z,25.85
2023-03-10T11:21:33.276Z,26.00
2023-03-10T11:26:44.729Z,26.40
2023-03-10T11:31:51.589Z,26.68
2023-03-10T11:37:02.883Z,26.94
2023-03-10T11:42:07.186Z,26.86
2023-03-10T11:47:13.131Z,25.45
2023-03-10T11:52:18.137Z,25.83
2023-03-10T11:57:20.378Z,26.14
2023-03-10T12:02:25.520Z,26.51
2023-03-10T12:07:30.673Z,25.76
2023-03-10T12:12:33.533Z,26.40
2023-03-10T12:17:33.042Z,26.02
2023-03-10T12:22:40.857Z,25.14
2023-03-10T12:28:13.741Z,25.16
2023-03-10T12:33:43.861Z,25.89
2023-03-10T12:38:51.366Z,25.77
2023-03-10T12:43:59.699Z,25.54
2023-03-10T12:49:09.350Z,25.74
2023-03-10T12:54:32.018Z,26.04
2023-03-10T12:59:39.777Z,26.05
2023-03-10T13:04:38.812Z,26.40
2023-03-10T13:09:43.045Z,26.20
2023-03-10T13:14:43.924Z,26.34
2023-03-10T13:19:42.810Z,26.01
2023-03-10T13:24:43.363Z,25.96
2023-03-10T13:29:54.374Z,26.08
2023-03-10T13:34:53.299Z,26.00
2023-03-10T13:39:53.701Z,25.67
2023-03-10T13:44:53.652Z,25.21
2023-03-10T13:49:54.815Z,24.76
2023-03-10T13:55:06.610Z,24.42
2023-03-10T14:00:08.532Z,24.20
2023-03-10T14:05:38.982Z,23.68
2023-03-10T14:10:39.273Z,23.46
2023-03-10T14:15:39.160Z,23.27
2023-03-10T14:20:40.041Z,23.07
2023-03-10T14:25:42.580Z,22.74
2023-03-10T14:30:44.254Z,22.64
2023-03-10T14:35:44.099Z,22.48
2023-03-10T14:40:47.389Z,22.52
2023-03-10T14:45:47.821Z,22.48
2023-03-10T14:50:48.316Z,22.27
2023-03-10T14:55:51.490Z,21.93
2023-03-10T15:00:50.858Z,21.63
2023-03-10T15:05:49.701Z,21.50
2023-03-10T15:10:52.237Z,20.90
2023-03-10T15:15:51.522Z,20.51
2023-03-10T15:20:50.659Z,20.51
2023-03-10T15:25:50.870Z,20.52
2023-03-10T15:30:50.214Z,20.50
2023-03-10T15:35:50.156Z,20.51
2023-03-10T15:40:50.550Z,20.46
2023-03-10T15:45:50.455Z,20.31
2023-03-10T15:50:49.156Z,20.40
2023-03-10T15:55:48.480Z,20.42
2023-03-10T16:00:48.646Z,20.26
2023-03-10T16:05:49.171Z,20.15
2023-03-10T16:10:54.641Z,20.26
2023-03-10T16:15:54.846Z,20.28
2023-03-10T16:20:58.696Z,19.98
2023-03-10T16:26:10.252Z,19.81
2023-03-10T16:31:11.484Z,19.73
2023-03-10T16:36:14.535Z,19.51
2023-03-10T16:41:14.045Z,19.42
2023-03-10T16:46:17.439Z,19.21
2023-03-10T16:51:23.325Z,18.89
2023-03-10T16:56:23.115Z,18.41
2023-03-10T17:01:24.327Z,18.45
2023-03-10T17:06:25.297Z,18.40
2023-03-10T17:11:26.820Z,18.25
2023-03-10T17:16:29.326Z,17.80
2023-03-10T17:21:29.934Z,17.72
2023-03-10T17:26:28.981Z,17.80
2023-03-10T17:31:30.776Z,17.70
2023-03-10T17:36:30.328Z,17.54
2023-03-10T17:41:30.543Z,17.47
2023-03-10T17:46:32.908Z,17.48
2023-03-10T17:51:32.450Z,17.46
2023-03-10T17:56:31.429Z,17.36
2023-03-10T18:01:33.696Z,17.15
2023-03-10T18:06:34.537Z,17.13
2023-03-10T18:11:33.749Z,17.18
2023-03-10T18:16:35.743Z,17.18
2023-03-10T18:21:34.701Z,17.20
2023-03-10T18:26:33.883Z,17.12
2023-03-10T18:31:34.847Z,17.09
2023-03-10T18:36:34.216Z,17.07
2023-03-10T18:41:33.059Z,17.02
2023-03-10T18:46:33.460Z,16.95
2023-03-10T18:51:32.322Z,16.96
2023-03-10T18:56:31.601Z,16.92
2023-03-10T19:01:30.710Z,16.82
2023-03-10T19:06:35.448Z,16.77
2023-03-10T19:11:36.198Z,16.76
2023-03-10T19:16:36.678Z,16.70
2023-03-10T19:21:38.200Z,16.54
2023-03-10T19:26:37.378Z,16.49
2023-03-10T19:31:36.501Z,16.37
2023-03-10T19:36:36.628Z,16.10
2023-03-10T19:41:35.546Z,16.01
2023-03-10T19:46:34.672Z,15.94
2023-03-10T19:51:38.499Z,16.10
2023-03-10T19:56:37.390Z,16.23
2023-03-10T20:01:39.032Z,16.32
2023-03-10T20:06:39.441Z,16.40
2023-03-10T20:11:38.901Z,16.40
2023-03-10T20:16:37.718Z,16.41
2023-03-10T20:21:36.479Z,16.39
2023-03-10T20:26:36.920Z,16.36
2023-03-10T20:31:36.280Z,16.31
2023-03-10T20:36:39.357Z,16.28
2023-03-10T20:41:42.270Z,16.23
2023-03-10T20:46:45.304Z,16.17
2023-03-10T20:51:44.007Z,16.13
2023-03-10T20:56:44.309Z,16.13
2023-03-10T21:01:43.150Z,16.09
2023-03-10T21:06:41.966Z,16.01
2023-03-10T21:11:41.493Z,15.94
2023-03-10T21:16:42.171Z,15.91
2023-03-10T21:21:43.295Z,15.84
2023-03-10T21:26:42.000Z,15.83
2023-03-10T21:31:42.314Z,15.79
2023-03-10T21:36:41.152Z,15.73
2023-03-10T21:41:40.249Z,15.66
2023-03-10T21:46:39.130Z,15.59
2023-03-10T21:51:39.469Z,15.56
2023-03-10T21:56:38.381Z,15.50
2023-03-10T22:01:37.206Z,15.41
2023-03-10T22:06:36.034Z,15.31
2023-03-10T22:11:36.256Z,15.36
2023-03-10T22:16:35.001Z,15.39
2023-03-10T22:21:33.861Z,15.40
2023-03-10T22:26:32.638Z,15.38
2023-03-10T22:31:33.153Z,15.35
2023-03-10T22:36:32.212Z,15.29
2023-03-10T22:41:31.072Z,15.26
2023-03-10T22:46:29.787Z,15.25
2023-03-10T22:51:29.945Z,15.23
2023-03-10T22:56:28.817Z,15.18
2023-03-10T23:01:27.647Z,15.16
2023-03-10T23:06:29.190Z,15.12
2023-03-10T23:11:29.419Z,15.12
2023-03-10T23:16:28.679Z,15.07
2023-03-10T23:21:27.544Z,15.03
2023-03-10T23:26:27.253Z,15.00
2023-03-10T23:31:27.530Z,14.97
2023-03-10T23:36:26.311Z,14.94
2023-03-10T23:41:25.416Z,14.92
2023-03-10T23:46:24.169Z,14.85
2023-03-10T23:51:24.321Z,14.76
2023-03-10T23:56:23.077Z,14.65
